Time;durP1;ratioP1;P1;durP2;ratioP2;P2;SDS_P1;SDS_P2;PMS_P1;PMS_P2;Temp;Humidity;BMP_temperature;BMP_pressure;BME280_temperature;BME280_humidity;BME280_pressure;Samples;Min_cycle;Max_cycle;Signal;HPM_P1;HPM_P2
2022/08/28 00:00:17;;;;;;;8.68;4.68;;;;;;;19.93;55.53;93796.22;5065363;28;20032;-79
2022/08/28 00:02:45;;;;;;;14.50;5.63;;;;;;;19.89;55.58;93795.41;5065242;28;20039;-79
2022/08/28 00:05:13;;;;;;;16.13;5.38;;;;;;;19.79;55.84;93797.66;5064983;28;20037;-79
2022/08/28 00:07:39;;;;;;;11.18;4.22;;;;;;;19.77;55.53;93791.84;5064980;28;20108;-79
2022/08/28 00:10:07;;;;;;;12.88;4.45;;;;;;;19.78;55.75;93790.69;5065306;28;20036;-79
2022/08/28 00:12:34;;;;;;;17.00;6.03;;;;;;;19.74;56.08;93800.72;5064812;28;20063;-79
2022/08/28 00:14:59;;;;;;;24.48;5.18;;;;;;;19.71;55.38;93793.31;5063926;28;20109;-79
2022/08/28 00:17:25;;;;;;;19.35;6.43;;;;;;;19.68;55.09;93791.31;5064950;28;20299;-79
2022/08/28 00:19:50;;;;;;;23.20;5.22;;;;;;;19.68;55.11;93796.72;5064823;28;20092;-79
2022/08/28 00:22:16;;;;;;;13.07;4.63;;;;;;;19.69;54.75;93798.28;5063977;28;20219;-79
2022/08/28 00:24:43;;;;;;;21.85;5.38;;;;;;;19.70;54.00;93799.06;5064994;28;20059;-79
2022/08/28 00:29:53;;;;;;;14.93;5.38;;;;;;;19.72;54.68;93797.59;5064825;28;20020;-80
2022/08/28 00:32:22;;;;;;;15.32;5.00;;;;;;;19.74;54.77;93797.19;5064693;28;20020;-79
2022/08/28 00:34:48;;;;;;;21.48;6.15;;;;;;;19.71;55.49;93801.44;5064431;28;20025;-79
2022/08/28 00:37:13;;;;;;;20.75;5.07;;;;;;;19.74;55.45;93799.91;5063370;28;20090;-79
2022/08/28 00:39:39;;;;;;;17.17;5.45;;;;;;;19.70;55.93;93804.47;5064714;28;20242;-80
2022/08/28 00:42:04;;;;;;;18.27;5.60;;;;;;;19.64;56.24;93801.31;5063630;28;20315;-81
2022/08/28 00:44:30;;;;;;;10.55;5.68;;;;;;;19.66;56.20;93801.72;5064590;28;20071;-80
2022/08/28 00:46:58;;;;;;;17.13;4.82;;;;;;;19.64;56.12;93796.72;5064421;28;20312;-81
2022/08/28 00:49:28;;;;;;;19.88;4.93;;;;;;;19.67;56.54;93803.28;5064415;28;20024;-81
2022/08/28 00:52:07;;;;;;;21.10;5.97;;;;;;;19.61;56.31;93796.66;5064233;28;20040;-80
2022/08/28 00:54:44;;;;;;;16.80;5.40;;;;;;;19.58;56.90;93803.59;5064334;28;20029;-81
2022/08/28 00:57:16;;;;;;;21.98;7.40;;;;;;;19.55;57.28;93806.28;5064112;28;20102;-81
2022/08/28 00:59:42;;;;;;;24.52;7.78;;;;;;;19.50;56.39;93803.88;5064273;28;20196;-81
2022/08/28 01:02:08;;;;;;;27.73;8.70;;;;;;;19.48;56.04;93803.47;5063001;28;20071;-81
2022/08/28 01:04:34;;;;;;;33.15;9.63;;;;;;;19.47;57.11;93808.13;5064036;28;20066;-81
2022/08/28 01:07:04;;;;;;;33.47;9.73;;;;;;;19.44;57.45;93798.84;5064162;28;20056;-81
2022/08/28 01:09:31;;;;;;;29.85;8.57;;;;;;;19.40;57.16;93808.81;5064668;28;20315;-81
2022/08/28 01:12:02;;;;;;;23.05;6.97;;;;;;;19.36;55.75;93805.31;5064545;28;20029;-80
2022/08/28 01:14:29;;;;;;;26.80;6.65;;;;;;;19.35;54.84;93806.44;5062718;28;20029;-81
2022/08/28 01:16:56;;;;;;;15.20;7.18;;;;;;;19.36;54.85;93808.00;5063815;28;20021;-80
2022/08/28 01:19:38;;;;;;;21.33;7.07;;;;;;;19.35;55.33;93802.97;5063677;28;20040;-80
2022/08/28 01:22:17;;;;;;;26.63;7.63;;;;;;;19.32;55.93;93799.09;5063830;28;20024;-80
2022/08/28 01:24:44;;;;;;;15.77;6.32;;;;;;;19.33;55.20;93802.56;5063962;28;20052;-80
2022/08/28 01:27:10;;;;;;;16.33;5.70;;;;;;;19.30;55.29;93793.28;5063958;28;20254;-80
2022/08/28 01:29:35;;;;;;;20.02;7.43;;;;;;;19.33;55.85;93803.34;5063559;28;20020;-80
2022/08/28 01:32:01;;;;;;;26.85;7.57;;;;;;;19.35;56.85;93814.56;5063325;28;20040;-80
2022/08/28 01:34:27;;;;;;;22.13;8.13;;;;;;;19.31;57.14;93805.63;5063598;28;20084;-80
2022/08/28 01:36:52;;;;;;;22.73;6.88;;;;;;;19.30;57.30;93804.09;5063387;28;20254;-80
2022/08/28 01:39:21;;;;;;;24.63;7.70;;;;;;;19.25;56.92;93809.81;5063310;28;20320;-80
2022/08/28 01:41:50;;;;;;;21.92;6.32;;;;;;;19.26;57.18;93808.66;5063376;28;20029;-80
2022/08/28 01:44:18;;;;;;;19.33;6.35;;;;;;;19.24;57.30;93809.03;5063339;28;20387;-80
2022/08/28 01:46:44;;;;;;;22.27;7.82;;;;;;;19.24;56.59;93810.97;5063261;28;20020;-79
2022/08/28 01:49:10;;;;;;;11.45;5.90;;;;;;;19.26;57.10;93811.38;5063281;28;20048;-80
2022/08/28 01:51:38;;;;;;;20.55;6.75;;;;;;;19.23;57.94;93807.50;5063118;28;20041;-80
2022/08/28 01:54:04;;;;;;;11.23;5.30;;;;;;;19.17;57.69;93814.38;5063050;28;20333;-80
2022/08/28 01:56:31;;;;;;;21.10;6.43;;;;;;;19.16;58.23;93809.31;5061998;28;20322;-80
2022/08/28 01:58:56;;;;;;;14.15;5.40;;;;;;;19.11;58.10;93796.13;5063102;28;20200;-79
2022/08/28 02:01:23;;;;;;;14.65;4.93;;;;;;;19.07;58.37;93800.72;5062929;28;20027;-78
2022/08/28 02:03:51;;;;;;;15.32;6.30;;;;;;;19.04;58.25;93803.00;5062876;28;20350;-79
2022/08/28 02:06:17;;;;;;;14.85;5.10;;;;;;;19.02;58.79;93799.91;5063140;28;20024;-79
2022/08/28 02:08:42;;;;;;;14.52;6.38;;;;;;;19.00;58.70;93807.59;5063131;28;20230;-80
2022/08/28 02:11:08;;;;;;;12.18;5.03;;;;;;;18.98;58.95;93815.28;5062836;28;20258;-80
2022/08/28 02:13:35;;;;;;;11.43;5.75;;;;;;;18.94;59.30;93803.66;5063039;28;20051;-80
2022/08/28 02:16:00;;;;;;;17.10;5.63;;;;;;;18.91;59.62;93800.91;5062759;28;20045;-80
2022/08/28 02:18:26;;;;;;;15.80;5.95;;;;;;;18.87;60.03;93803.59;5062825;28;20087;-80
2022/08/28 02:20:52;;;;;;;17.15;6.55;;;;;;;18.79;60.53;93800.00;5062912;28;20029;-80
2022/08/28 02:23:17;;;;;;;13.52;5.53;;;;;;;18.76;60.25;93805.31;5062900;28;20071;-80
2022/08/28 02:25:42;;;;;;;17.30;5.38;;;;;;;18.69;60.11;93799.84;5062854;28;20025;-80
2022/08/28 02:28:08;;;;;;;14.40;5.68;;;;;;;18.60;60.61;93809.00;5062915;28;20330;-81
2022/08/28 02:30:34;;;;;;;28.52;6.03;;;;;;;18.59;60.88;93804.72;5062644;28;20109;-81
2022/08/28 02:33:00;;;;;;;14.05;5.80;;;;;;;18.56;61.49;93808.16;5062780;28;20028;-81
2022/08/28 02:35:25;;;;;;;16.70;5.68;;;;;;;18.54;61.18;93799.66;5062833;28;20192;-81
2022/08/28 02:37:51;;;;;;;24.85;6.25;;;;;;;18.51;61.50;93808.47;5062545;28;20020;-79
2022/08/28 02:40:20;;;;;;;9.48;4.90;;;;;;;18.52;61.59;93809.25;5062675;28;20036;-79
2022/08/28 02:42:45;;;;;;;14.35;5.65;;;;;;;18.48;61.57;93809.22;5062586;28;20204;-78
2022/08/28 02:45:13;;;;;;;14.88;5.35;;;;;;;18.46;61.37;93811.50;5064424;28;20025;-79
2022/08/28 02:47:41;;;;;;;10.57;5.45;;;;;;;18.44;62.00;93809.16;5066854;28;20040;-79
2022/08/28 02:50:08;;;;;;;17.98;6.32;;;;;;;18.40;62.05;93812.94;5066763;28;20056;-78
2022/08/28 02:52:36;;;;;;;21.27;6.22;;;;;;;18.38;61.43;93815.22;5066506;28;20025;-79
2022/08/28 02:55:02;;;;;;;15.90;7.38;;;;;;;18.38;61.09;93816.00;5066679;28;20067;-79
2022/08/28 02:57:29;;;;;;;16.60;5.68;;;;;;;18.41;61.15;93811.78;5066633;28;20025;-79
2022/08/28 02:59:55;;;;;;;14.77;6.18;;;;;;;18.40;61.55;93824.50;5066357;28;20020;-78
2022/08/28 03:02:20;;;;;;;16.15;5.63;;;;;;;18.39;61.72;93817.53;5066533;28;20033;-78
2022/08/28 03:04:47;;;;;;;15.15;5.63;;;;;;;18.40;62.01;93823.75;5065368;28;20020;-78
2022/08/28 03:07:14;;;;;;;13.70;5.47;;;;;;;18.37;61.74;93819.06;5066276;28;20307;-79
2022/08/28 03:09:43;;;;;;;11.43;5.32;;;;;;;18.37;61.01;93819.06;5066330;28;20020;-79
2022/08/28 03:12:11;;;;;;;16.80;6.22;;;;;;;18.40;60.78;93818.34;5066286;28;20023;-79
2022/08/28 03:14:37;;;;;;;16.38;6.28;;;;;;;18.40;61.71;93816.41;5066311;28;20062;-79
2022/08/28 03:17:03;;;;;;;16.70;6.22;;;;;;;18.40;62.30;93821.81;5065756;28;20131;-79
2022/08/28 03:19:28;;;;;;;21.33;5.65;;;;;;;18.37;62.30;93827.94;5065982;28;20021;-81
2022/08/28 03:21:54;;;;;;;11.95;5.18;;;;;;;18.34;62.12;93819.78;5064989;28;20071;-81
2022/08/28 03:24:20;;;;;;;19.45;5.50;;;;;;;18.30;62.40;93825.13;5064935;28;20339;-81
2022/08/28 03:26:45;;;;;;;15.45;5.40;;;;;;;18.28;62.88;93821.22;5065869;28;20143;-81
2022/08/28 03:29:11;;;;;;;17.63;6.40;;;;;;;18.26;62.78;93816.22;5066022;28;20226;-80
2022/08/28 03:31:37;;;;;;;18.67;5.60;;;;;;;18.25;62.66;93818.09;5064676;28;20242;-78
2022/08/28 03:34:03;;;;;;;12.30;5.30;;;;;;;18.15;62.80;93824.13;5065620;28;20017;-78
2022/08/28 03:36:29;;;;;;;15.68;5.18;;;;;;;18.13;63.25;93821.00;5065669;28;20021;-78
2022/08/28 03:38:57;;;;;;;15.77;5.88;;;;;;;18.13;63.32;93826.41;5065690;28;20020;-78
2022/08/28 03:41:24;;;;;;;17.52;5.13;;;;;;;18.07;63.46;93825.16;5065513;28;20194;-78
2022/08/28 03:43:50;;;;;;;15.90;6.60;;;;;;;18.07;63.74;93829.75;5065415;28;20024;-78
2022/08/28 03:46:21;;;;;;;16.05;5.28;;;;;;;18.03;64.43;93844.00;5065536;28;20315;-78
2022/08/28 03:48:46;;;;;;;12.23;5.50;;;;;;;17.98;64.48;93841.56;5065321;28;20020;-78
2022/08/28 03:51:15;;;;;;;19.40;5.55;;;;;;;17.98;64.12;93843.50;5064051;28;20178;-78
2022/08/28 03:53:41;;;;;;;16.35;6.07;;;;;;;17.95;64.32;93841.50;5065353;28;20338;-78
2022/08/28 03:56:14;;;;;;;12.82;5.28;;;;;;;17.90;64.08;93848.00;5065199;28;20043;-79
2022/08/28 03:58:40;;;;;;;19.17;5.60;;;;;;;17.87;64.08;93846.03;5065308;28;20025;-79
2022/08/28 04:01:06;;;;;;;15.13;5.32;;;;;;;17.87;64.12;93847.91;5065466;28;20017;-79
2022/08/28 04:03:32;;;;;;;17.42;5.22;;;;;;;17.87;64.29;93847.91;5065301;28;20337;-79
2022/08/28 04:05:58;;;;;;;13.27;6.18;;;;;;;17.83;64.40;93859.44;5065063;28;20043;-79
2022/08/28 04:08:24;;;;;;;16.98;6.05;;;;;;;17.82;64.49;93855.13;5064163;28;20215;-80
2022/08/28 04:10:50;;;;;;;11.45;5.65;;;;;;;17.81;64.48;93853.59;5065138;28;20025;-80
2022/08/28 04:13:17;;;;;;;24.17;6.15;;;;;;;17.82;64.38;93854.38;5064990;28;20021;-80
2022/08/28 04:15:43;;;;;;;19.90;5.70;;;;;;;17.84;64.57;93855.59;5065096;28;20099;-79
2022/08/28 04:18:10;;;;;;;13.50;5.15;;;;;;;17.89;65.08;93867.22;5065172;28;20032;-80
2022/08/28 04:20:36;;;;;;;12.65;5.75;;;;;;;17.89;63.41;93869.91;5065032;28;20052;-80
2022/08/28 04:23:02;;;;;;;23.27;6.80;;;;;;;17.94;63.04;93872.31;5064812;28;20040;-81
2022/08/28 04:25:29;;;;;;;17.80;5.88;;;;;;;18.01;62.79;93883.22;5064878;28;20039;-81
2022/08/28 04:27:54;;;;;;;17.45;6.38;;;;;;;18.07;62.32;93881.78;5064929;28;20212;-81
2022/08/28 04:30:21;;;;;;;13.00;5.68;;;;;;;18.12;63.25;93881.50;5064886;28;20025;-80
2022/08/28 04:32:46;;;;;;;12.88;5.85;;;;;;;18.15;63.50;93875.38;5064768;28;20361;-80
2022/08/28 04:35:13;;;;;;;14.40;5.55;;;;;;;18.26;63.26;93878.25;5064749;28;20021;-79
2022/08/28 04:37:39;;;;;;;20.95;6.78;;;;;;;18.31;63.12;93886.03;5064490;28;20093;-79
2022/08/28 04:40:08;;;;;;;17.38;5.40;;;;;;;18.38;63.72;93885.38;5064638;28;20025;-79
2022/08/28 04:42:34;;;;;;;19.85;6.13;;;;;;;18.43;63.78;93893.16;5064637;28;20024;-79
2022/08/28 04:44:59;;;;;;;15.23;6.03;;;;;;;18.45;63.92;93882.78;5064597;28;20447;-79
2022/08/28 04:47:26;;;;;;;13.95;6.35;;;;;;;18.53;64.19;93889.84;5064558;28;20020;-78
2022/08/28 04:49:52;;;;;;;15.77;6.13;;;;;;;18.62;63.56;93889.59;5064437;28;20029;-78
2022/08/28 04:52:18;;;;;;;14.40;5.60;;;;;;;18.68;62.83;93887.38;5064230;28;20024;-78
2022/08/28 04:54:43;;;;;;;13.80;6.18;;;;;;;18.79;61.16;93891.03;5064289;28;20021;-78
2022/08/28 04:57:09;;;;;;;10.85;5.90;;;;;;;18.89;60.51;93893.13;5064355;28;20326;-79
2022/08/28 04:59:34;;;;;;;17.65;6.35;;;;;;;18.94;60.94;93892.78;5064156;28;20044;-79
2022/08/28 05:02:00;;;;;;;15.07;6.90;;;;;;;19.01;61.35;93892.88;5064398;28;20299;-81
2022/08/28 05:04:25;;;;;;;14.98;5.88;;;;;;;19.14;61.95;93900.78;5064107;28;20223;-80
2022/08/28 05:06:51;;;;;;;22.48;6.35;;;;;;;19.11;61.45;93893.38;5063460;28;20101;-80
2022/08/28 05:09:18;;;;;;;17.48;6.25;;;;;;;19.18;61.16;93896.97;5063675;28;20024;-81
2022/08/28 05:11:45;;;;;;;14.07;5.75;;;;;;;19.22;60.96;93900.50;5063924;28;20352;-80
2022/08/28 05:14:13;;;;;;;18.55;8.57;;;;;;;19.22;60.64;93905.13;5062850;28;20027;-82
2022/08/28 05:16:41;;;;;;;13.32;6.10;;;;;;;19.28;61.04;93902.88;5062676;28;20071;-85
2022/08/28 05:19:07;;;;;;;18.27;6.32;;;;;;;19.31;61.41;93897.50;5064129;28;20063;-88
2022/08/28 05:21:33;;;;;;;12.27;6.72;;;;;;;19.30;60.87;93906.00;5064206;28;20054;-89
2022/08/28 05:23:58;;;;;;;16.23;7.03;;;;;;;19.31;61.65;93907.53;5064504;28;20297;-84
2022/08/28 05:26:25;;;;;;;19.40;7.78;;;;;;;19.32;61.48;93901.78;5063656;28;20429;-85
2022/08/28 05:28:53;;;;;;;15.90;7.63;;;;;;;19.28;61.70;93913.69;5063812;28;20067;-84
2022/08/28 05:31:20;;;;;;;22.63;7.75;;;;;;;19.28;62.21;93919.88;5062621;28;20033;-83
2022/08/28 05:33:47;;;;;;;24.77;7.53;;;;;;;19.29;61.75;93909.81;5064254;28;20036;-83
2022/08/28 05:36:14;;;;;;;25.23;8.35;;;;;;;19.30;61.37;93920.28;5063531;28;20025;-83
2022/08/28 05:38:40;;;;;;;25.15;7.38;;;;;;;19.31;61.00;93919.13;5063739;28;20219;-83
2022/08/28 05:41:06;;;;;;;12.43;7.22;;;;;;;19.42;60.83;93925.44;5063629;28;20031;-84
2022/08/28 05:43:32;;;;;;;18.23;7.90;;;;;;;19.51;61.39;93922.47;5063677;28;20056;-87
2022/08/28 05:45:59;;;;;;;25.25;7.47;;;;;;;19.51;61.33;93924.38;5063631;28;20035;-87
2022/08/28 05:48:30;;;;;;;18.58;7.20;;;;;;;19.59;61.43;93924.09;5063707;28;20138;-91
2022/08/28 05:51:08;;;;;;;15.68;6.50;;;;;;;19.71;60.33;93925.81;5063456;28;20075;-88
2022/08/28 05:53:36;;;;;;;14.48;7.28;;;;;;;19.78;60.55;93925.91;5063611;28;20040;-89
2022/08/28 05:56:04;;;;;;;17.40;7.72;;;;;;;19.78;59.43;93930.50;5065809;28;20092;-91
2022/08/28 05:58:30;;;;;;;32.78;7.68;;;;;;;19.83;59.10;93922.84;5063859;28;20337;-89
2022/08/28 06:01:08;;;;;;;16.63;7.40;;;;;;;19.89;59.23;93933.34;5064415;28;20064;-85
2022/08/28 06:03:35;;;;;;;23.77;7.70;;;;;;;19.95;58.28;93929.16;5062983;28;20045;-84
2022/08/28 06:06:00;;;;;;;17.10;7.22;;;;;;;20.01;58.02;93933.09;5063519;28;20048;-85
2022/08/28 06:08:27;;;;;;;25.58;7.45;;;;;;;20.06;57.88;93923.88;5063200;28;20227;-85
2022/08/28 06:10:53;;;;;;;24.65;8.25;;;;;;;20.15;57.47;93927.03;5062991;28;20048;-86
2022/08/28 06:13:18;;;;;;;18.42;7.00;;;;;;;20.22;57.80;93933.28;5061723;28;20350;-87
2022/08/28 06:15:45;;;;;;;23.85;6.72;;;;;;;20.35;57.42;93928.41;5062860;28;20021;-84
2022/08/28 06:18:12;;;;;;;25.45;7.03;;;;;;;20.46;57.00;93930.44;5063032;28;20227;-87
2022/08/28 06:20:41;;;;;;;33.80;7.05;;;;;;;20.54;56.55;93921.97;5062242;28;20021;-90
2022/08/28 06:23:09;;;;;;;22.88;6.78;;;;;;;20.63;55.49;93925.16;5063022;28;20020;-85
2022/08/28 06:25:39;;;;;;;13.63;6.32;;;;;;;20.71;55.76;93923.28;5062631;28;20024;-83
2022/08/28 06:28:06;;;;;;;23.00;7.57;;;;;;;20.80;56.22;93918.34;5062367;28;20056;-86
2022/08/28 06:30:35;;;;;;;17.67;8.68;;;;;;;20.94;56.83;93923.06;5062143;28;20025;-85
2022/08/28 06:33:02;;;;;;;18.10;7.18;;;;;;;21.08;56.48;93921.59;5062550;28;20029;-84
2022/08/28 06:35:27;;;;;;;20.98;8.07;;;;;;;21.19;55.88;93933.28;5062257;28;20028;-84
2022/08/28 06:37:52;;;;;;;20.70;6.95;;;;;;;21.31;56.06;93932.97;5060961;28;20025;-83
2022/08/28 06:40:18;;;;;;;20.55;7.53;;;;;;;21.41;55.73;93931.44;5062336;28;20098;-89
2022/08/28 06:42:44;;;;;;;21.58;7.10;;;;;;;21.52;55.29;93931.56;5062890;28;20272;-87
2022/08/28 06:45:11;;;;;;;18.83;7.22;;;;;;;21.62;55.17;93936.25;5062507;28;20036;-86
2022/08/28 06:47:37;;;;;;;24.27;6.90;;;;;;;21.63;54.54;93935.84;5063444;28;20200;-90
2022/08/28 06:50:03;;;;;;;23.73;7.45;;;;;;;21.63;54.59;93927.72;5061683;28;20031;-89
2022/08/28 06:52:30;;;;;;;25.45;7.70;;;;;;;21.69;54.78;93936.25;5063636;28;20021;-90
2022/08/28 06:54:55;;;;;;;22.42;7.65;;;;;;;21.77;55.21;93935.13;5065287;28;20056;-91
2022/08/28 06:57:22;;;;;;;18.77;8.13;;;;;;;21.88;54.25;93934.38;5065057;28;20235;-89
2022/08/28 06:59:48;;;;;;;17.05;7.60;;;;;;;21.95;53.64;93931.69;5063661;28;20028;-87
2022/08/28 07:02:13;;;;;;;19.35;7.75;;;;;;;22.06;54.00;93929.78;5062873;28;20032;-87
2022/08/28 07:04:39;;;;;;;25.08;7.90;;;;;;;22.15;54.02;93935.63;5062523;28;20040;-89
2022/08/28 07:07:05;;;;;;;17.67;7.25;;;;;;;22.26;54.13;93938.38;5064881;28;20224;-90
2022/08/28 07:09:30;;;;;;;17.65;7.95;;;;;;;22.35;53.76;93935.31;5062831;28;20040;-90
2022/08/28 07:12:38;;;;;;;14.77;7.25;;;;;;;22.51;53.22;93932.19;5062582;28;20040;-86
2022/08/28 07:15:03;;;;;;;17.90;6.65;;;;;;;22.60;52.20;93927.94;5060964;28;20032;-88
2022/08/28 07:17:30;;;;;;;15.35;7.07;;;;;;;22.56;51.87;93927.16;5061249;28;20331;-88
2022/08/28 07:19:55;;;;;;;21.33;8.25;;;;;;;22.63;51.72;93935.34;5060743;28;20032;-88
2022/08/28 07:22:21;;;;;;;22.38;7.18;;;;;;;22.68;52.50;93936.09;5061316;28;20107;-87
2022/08/28 07:24:47;;;;;;;16.60;6.38;;;;;;;22.77;51.35;93934.53;5062579;28;20318;-87
2022/08/28 07:27:13;;;;;;;26.80;6.45;;;;;;;22.80;50.37;93930.28;5062509;28;20059;-88
2022/08/28 07:29:38;;;;;;;17.60;6.55;;;;;;;22.91;49.71;93922.88;5060117;28;20146;-87
2022/08/28 07:32:04;;;;;;;28.58;5.95;;;;;;;22.97;48.99;93926.75;5064445;28;20028;-88
2022/08/28 07:34:29;;;;;;;21.95;5.85;;;;;;;23.05;50.47;93927.56;5064691;28;20016;-89
2022/08/28 07:37:02;;;;;;;12.18;5.80;;;;;;;23.16;50.47;93927.53;5064488;28;20021;-88
2022/08/28 07:39:31;;;;;;;15.93;5.43;;;;;;;23.27;49.66;93936.44;5064753;28;20028;-89
2022/08/28 07:41:56;;;;;;;21.77;5.50;;;;;;;23.38;48.65;93926.31;5065366;28;20320;-88
2022/08/28 07:47:06;;;;;;;16.90;5.50;;;;;;;23.58;47.09;93920.44;5066874;28;20349;-87
2022/08/28 07:49:33;;;;;;;15.60;5.47;;;;;;;23.66;47.72;93921.94;5066198;28;20025;-87
2022/08/28 07:51:59;;;;;;;19.60;5.70;;;;;;;23.72;48.47;93920.38;5066171;28;20090;-87
2022/08/28 07:54:25;;;;;;;15.02;5.50;;;;;;;23.77;47.89;93919.22;5065571;28;20036;-86
2022/08/28 07:56:51;;;;;;;16.45;4.93;;;;;;;23.83;47.96;93921.13;5065510;28;20120;-87
2022/08/28 07:59:17;;;;;;;24.85;7.95;;;;;;;23.95;47.18;93916.41;5065649;28;20199;-87
2022/08/28 08:01:45;;;;;;;19.85;6.00;;;;;;;23.99;47.08;93912.47;5065754;28;20096;-87
2022/08/28 08:04:12;;;;;;;19.00;5.63;;;;;;;24.06;45.26;93911.69;5064854;28;20051;-86
2022/08/28 08:06:39;;;;;;;21.77;5.90;;;;;;;24.09;45.51;93913.59;5066078;28;20055;-89
2022/08/28 08:09:08;;;;;;;21.70;5.70;;;;;;;24.10;45.45;93922.53;5066908;28;20021;-89
2022/08/28 08:11:33;;;;;;;23.10;5.20;;;;;;;24.18;45.37;93919.41;5066362;28;20307;-90
2022/08/28 08:14:04;;;;;;;15.73;5.45;;;;;;;24.24;45.70;93917.00;5067412;28;20020;-91
2022/08/28 08:16:32;;;;;;;16.83;5.03;;;;;;;24.30;45.24;93920.09;5065713;28;20063;-91
2022/08/28 08:18:58;;;;;;;14.48;5.38;;;;;;;24.41;44.93;93912.63;5066112;28;20116;-90
2022/08/28 08:21:24;;;;;;;19.45;5.15;;;;;;;24.56;44.90;93921.50;5066101;28;20099;-91
2022/08/28 08:23:50;;;;;;;21.98;5.70;;;;;;;24.67;45.09;93921.41;5064693;28;20025;-91
2022/08/28 08:26:21;;;;;;;16.88;5.15;;;;;;;24.68;45.08;93923.72;5065400;28;20082;-90
2022/08/28 08:28:49;;;;;;;23.58;5.75;;;;;;;24.71;44.52;93922.16;5065513;28;20024;-91
2022/08/28 08:31:14;;;;;;;19.23;4.97;;;;;;;24.74;43.96;93926.81;5065648;28;20028;-89
2022/08/28 08:33:43;;;;;;;26.75;5.32;;;;;;;24.74;44.05;93922.13;5065173;28;20254;-88
2022/08/28 08:36:11;;;;;;;21.08;5.97;;;;;;;24.82;43.98;93918.16;5065354;28;20188;-90
2022/08/28 08:38:37;;;;;;;22.48;5.57;;;;;;;24.97;44.01;93918.03;5065919;28;20096;-86
2022/08/28 08:41:28;;;;;;;17.85;4.57;;;;;;;25.14;43.44;93916.34;5064985;28;20204;-87
2022/08/28 08:44:08;;;;;;;18.88;4.85;;;;;;;25.25;42.48;93911.56;5064054;28;20073;-88
2022/08/28 08:46:45;;;;;;;14.70;4.70;;;;;;;25.29;42.66;93917.00;5063993;28;20059;-88
2022/08/28 08:49:21;;;;;;;19.65;5.40;;;;;;;25.38;43.75;93915.34;5065165;28;20021;-84
2022/08/28 08:52:13;;;;;;;12.75;5.80;;;;;;;25.43;43.17;93916.84;5064865;28;20045;-87
2022/08/28 08:54:43;;;;;;;14.75;5.13;;;;;;;25.48;43.53;93918.34;5065138;28;20024;-87
2022/08/28 08:57:13;;;;;;;23.15;6.13;;;;;;;25.57;42.55;93911.22;5065076;28;20027;-90
2022/08/28 08:59:40;;;;;;;25.35;5.75;;;;;;;25.67;42.15;93916.97;5065518;28;20017;-89
2022/08/28 09:02:21;;;;;;;12.38;5.30;;;;;;;25.74;41.75;93912.19;5065513;28;20315;-89
2022/08/28 09:05:02;;;;;;;13.05;4.82;;;;;;;25.87;42.06;93922.56;5065051;28;20311;-90
2022/08/28 09:07:55;;;;;;;16.50;5.55;;;;;;;25.97;41.59;93921.66;5065328;28;20048;-90
2022/08/28 09:10:22;;;;;;;24.73;5.18;;;;;;;26.07;42.59;93909.06;5065047;28;20028;-89
2022/08/28 09:13:00;;;;;;;14.88;5.35;;;;;;;26.12;42.45;93905.88;5063628;28;20151;-89
2022/08/28 09:15:30;;;;;;;18.08;4.50;;;;;;;26.26;42.70;93910.38;5065077;28;20025;-91
2022/08/28 09:18:07;;;;;;;13.00;4.70;;;;;;;26.38;42.36;93912.53;5064855;28;20035;-88
2022/08/28 09:20:32;;;;;;;16.42;4.07;;;;;;;26.29;39.54;93912.28;5063273;28;20024;-89
2022/08/28 09:22:58;;;;;;;14.65;4.75;;;;;;;26.31;39.32;93907.16;5064272;28;20264;-89
2022/08/28 09:26:01;;;;;;;28.13;6.10;;;;;;;26.38;39.95;93912.53;5064056;28;20312;-89
2022/08/28 09:28:31;;;;;;;20.60;5.65;;;;;;;26.44;39.43;93897.22;5042953;28;20025;-88
2022/08/28 09:31:04;;;;;;;29.95;6.47;;;;;;;26.44;40.16;93905.41;5060834;28;20033;-89
2022/08/28 09:33:43;;;;;;;18.35;6.20;;;;;;;26.55;40.53;93906.00;5064418;28;20016;-90
2022/08/28 09:36:30;;;;;;;19.88;5.63;;;;;;;26.77;40.75;93903.75;5064575;28;20040;-89
2022/08/28 09:39:08;;;;;;;19.42;5.32;;;;;;;26.90;39.55;93903.16;5063214;28;20036;-90
2022/08/28 09:44:31;;;;;;;19.77;5.95;;;;;;;27.11;38.33;93900.06;5064165;28;20075;-90
2022/08/28 09:46:56;;;;;;;16.60;5.47;;;;;;;27.26;36.58;93897.09;5063022;28;20020;-89
2022/08/28 09:49:26;;;;;;;13.02;4.88;;;;;;;27.29;37.43;93897.00;5062888;28;20024;-90
2022/08/28 09:51:52;;;;;;;17.00;5.15;;;;;;;27.34;37.00;93890.28;5063822;28;20044;-88
2022/08/28 09:54:25;;;;;;;16.20;5.35;;;;;;;27.36;37.93;93885.94;5063763;28;20017;-88
2022/08/28 09:56:50;;;;;;;22.80;5.32;;;;;;;27.39;38.10;93890.56;5063982;28;20048;-88
2022/08/28 09:59:22;;;;;;;16.45;5.43;;;;;;;27.49;37.65;93891.53;5062975;28;20298;-88
2022/08/28 10:02:09;;;;;;;16.70;5.00;;;;;;;27.58;37.21;93885.53;5062730;28;20048;-88
2022/08/28 10:04:57;;;;;;;13.48;4.72;;;;;;;27.61;36.79;93884.69;5063648;28;20383;-88
2022/08/28 10:07:35;;;;;;;17.48;6.38;;;;;;;27.65;36.49;93879.91;5063914;28;20029;-88
2022/08/28 10:10:07;;;;;;;17.85;5.07;;;;;;;27.74;36.67;93879.31;5063693;28;20036;-88
2022/08/28 10:12:39;;;;;;;16.48;5.32;;;;;;;27.83;37.27;93882.28;5064163;28;20035;-89
2022/08/28 10:16:04;;;;;;;14.93;5.13;;;;;;;28.03;37.09;93876.78;5063753;28;20099;-89
2022/08/28 10:18:46;;;;;;;13.30;4.88;;;;;;;28.10;37.17;93864.91;5061948;28;20033;-89
2022/08/28 10:21:22;;;;;;;15.55;6.28;;;;;;;28.17;34.79;93860.03;5062531;28;20020;-89
2022/08/28 10:24:06;;;;;;;19.75;5.60;;;;;;;28.28;34.89;93867.25;5063463;28;20036;-90
2022/08/28 10:26:32;;;;;;;14.20;5.43;;;;;;;28.32;34.10;93871.44;5061783;28;20029;-88
2022/08/28 10:29:29;;;;;;;10.85;4.65;;;;;;;28.39;35.43;93871.28;5061826;28;20027;-89
2022/08/28 10:32:29;;;;;;;15.15;5.00;;;;;;;28.40;34.21;93864.59;5061431;28;20036;-89
2022/08/28 10:35:16;;;;;;;11.60;5.15;;;;;;;28.38;35.28;93874.44;5061789;28;20025;-88
2022/08/28 10:38:07;;;;;;;19.50;6.05;;;;;;;28.44;35.70;93867.25;5061783;28;20025;-88
2022/08/28 10:40:58;;;;;;;18.88;5.03;;;;;;;28.55;35.40;93867.78;5061506;28;20020;-89
2022/08/28 10:43:39;;;;;;;9.93;4.60;;;;;;;28.63;32.29;93864.88;5063556;28;20021;-88
2022/08/28 10:46:12;;;;;;;11.02;5.50;;;;;;;28.68;32.60;93859.66;5063500;28;20032;-89
2022/08/28 10:49:00;;;;;;;14.43;5.28;;;;;;;28.82;34.31;93861.25;5063610;28;20021;-88
2022/08/28 10:51:37;;;;;;;16.30;4.68;;;;;;;28.90;29.54;93859.91;5063209;28;20383;-88
2022/08/28 10:54:18;;;;;;;15.75;4.28;;;;;;;28.97;28.02;93858.94;5063175;28;20020;-88
2022/08/28 10:56:55;;;;;;;15.18;3.67;;;;;;;28.98;25.82;93855.78;5063727;28;20029;-89
2022/08/28 10:59:28;;;;;;;11.85;4.50;;;;;;;28.94;29.50;93857.84;5063225;28;20025;-90
2022/08/28 11:01:53;;;;;;;15.15;4.60;;;;;;;29.00;29.37;93853.38;5063103;28;20021;-89
2022/08/28 11:04:22;;;;;;;12.98;4.95;;;;;;;29.11;29.93;93858.59;5063064;28;20036;-89
2022/08/28 11:06:56;;;;;;;8.90;4.05;;;;;;;29.19;29.93;93851.72;5065641;28;20016;-88
2022/08/28 11:09:40;;;;;;;8.27;4.53;;;;;;;29.26;29.21;93852.72;5065391;28;20028;-89
2022/08/28 11:12:18;;;;;;;12.80;4.95;;;;;;;29.31;30.07;93852.97;5066934;28;20032;-90
2022/08/28 11:14:47;;;;;;;13.05;4.38;;;;;;;29.34;29.80;93843.84;5066773;28;20029;-89
2022/08/28 11:17:21;;;;;;;19.42;5.18;;;;;;;29.36;30.27;93846.94;5066898;28;20028;-89
2022/08/28 11:20:04;;;;;;;16.50;5.32;;;;;;;29.54;32.11;93845.69;5066833;28;20021;-90
2022/08/28 11:22:44;;;;;;;13.48;4.80;;;;;;;29.73;31.20;93835.75;5066936;28;20025;-89
2022/08/28 11:25:33;;;;;;;21.95;4.63;;;;;;;29.88;29.19;93847.06;5066593;28;20037;-89
2022/08/28 11:28:56;;;;;;;12.73;4.68;;;;;;;29.99;30.03;93836.53;5067033;28;20031;-90
2022/08/28 11:31:35;;;;;;;18.70;5.78;;;;;;;30.10;29.73;93833.47;5045456;28;20343;-90
2022/08/28 11:34:05;;;;;;;18.02;5.18;;;;;;;30.15;28.69;93843.94;5045349;28;20033;-90
2022/08/28 11:36:36;;;;;;;16.02;5.70;;;;;;;30.23;28.57;93828.00;5058203;28;20045;-90
2022/08/28 11:39:13;;;;;;;14.30;5.00;;;;;;;30.22;30.19;93832.69;5067558;28;20031;-90
2022/08/28 11:42:12;;;;;;;19.45;4.72;;;;;;;30.36;29.99;93831.50;5067076;28;20021;-89
2022/08/28 11:44:45;;;;;;;16.30;5.13;;;;;;;30.47;28.02;93826.44;5067021;28;20280;-89